Time;durP1;ratioP1;P1;durP2;ratioP2;P2;SDS_P1;SDS_P2;PMS_P1;PMS_P2;Temp;Humidity;BMP_temperature;BMP_pressure;BME280_temperature;BME280_humidity;BME280_pressure;Samples;Min_cycle;Max_cycle;Signal;HPM_P1;HPM_P2
2023/01/10 00:01:36;;;;;;;0.30;0.25;;;7.20;99.90;;;;;;5039833;28;20069;-79
2023/01/10 00:04:02;;;;;;;1.70;0.50;;;7.20;99.90;;;;;;5042751;28;20053;-79
2023/01/10 00:06:28;;;;;;;0.30;0.30;;;7.30;99.90;;;;;;5033126;28;20033;-79
2023/01/10 00:08:56;;;;;;;0.65;0.40;;;7.30;99.90;;;;;;5043947;28;20045;-80
2023/01/10 00:14:07;;;;;;;1.48;0.75;;;7.30;99.90;;;;;;5041876;28;20081;-80
2023/01/10 00:16:33;;;;;;;0.38;0.28;;;7.20;99.90;;;;;;5032902;28;20051;-80
2023/01/10 00:18:59;;;;;;;1.00;0.50;;;7.30;99.90;;;;;;5043028;28;20034;-80
2023/01/10 00:21:27;;;;;;;0.35;0.17;;;7.30;99.90;;;;;;5033190;28;20029;-80
2023/01/10 00:23:53;;;;;;;0.55;0.28;;;7.30;99.90;;;;;;5032231;28;20052;-80
2023/01/10 00:26:18;;;;;;;0.43;0.30;;;7.40;99.90;;;;;;5039604;28;20100;-80
2023/01/10 00:28:44;;;;;;;5.18;0.50;;;7.30;99.90;;;;;;5030018;28;20577;-80
2023/01/10 00:31:10;;;;;;;2.15;0.77;;;7.30;99.90;;;;;;5032336;28;20037;-80
2023/01/10 00:33:36;;;;;;;1.30;0.60;;;7.30;99.90;;;;;;5032106;28;20034;-80
2023/01/10 00:36:05;;;;;;;0.73;0.50;;;7.30;99.90;;;;;;5032753;28;20638;-80
2023/01/10 00:38:32;;;;;;;0.63;0.40;;;7.30;99.90;;;;;;5046876;28;20116;-80
2023/01/10 00:40:58;;;;;;;0.43;0.28;;;7.30;99.90;;;;;;5023082;28;20040;-81
2023/01/10 00:46:08;;;;;;;2.42;0.50;;;7.20;99.90;;;;;;5024597;28;20022;-81
2023/01/10 00:48:34;;;;;;;0.32;0.30;;;7.20;99.90;;;;;;5047189;28;20037;-80
2023/01/10 00:51:00;;;;;;;0.43;0.35;;;7.20;99.90;;;;;;5023025;28;20418;-82
2023/01/10 00:53:26;;;;;;;0.45;0.30;;;7.20;99.90;;;;;;5047399;28;20037;-80
2023/01/10 00:55:54;;;;;;;0.25;0.17;;;7.20;99.90;;;;;;5029124;28;20025;-81
2023/01/10 00:58:20;;;;;;;0.52;0.40;;;7.10;99.90;;;;;;5047586;28;20481;-80
2023/01/10 01:00:48;;;;;;;1.50;0.70;;;7.10;99.90;;;;;;5028576;28;20120;-81
2023/01/10 01:03:16;;;;;;;0.80;0.40;;;7.10;99.90;;;;;;5032256;28;20030;-81
2023/01/10 01:05:43;;;;;;;0.70;0.50;;;7.10;99.90;;;;;;5017986;28;20029;-81
2023/01/10 01:08:11;;;;;;;2.20;0.77;;;7.10;99.90;;;;;;5011662;28;20018;-81
2023/01/10 01:10:37;;;;;;;0.32;0.25;;;7.00;99.90;;;;;;5034240;28;20405;-81
2023/01/10 01:13:09;;;;;;;0.40;0.30;;;7.00;99.90;;;;;;5032047;28;20029;-81
2023/01/10 01:15:35;;;;;;;0.35;0.20;;;7.10;99.90;;;;;;5028302;28;20045;-82
2023/01/10 01:18:02;;;;;;;0.68;0.52;;;7.10;99.90;;;;;;5044782;28;20030;-81
2023/01/10 01:20:28;;;;;;;2.63;0.55;;;7.10;99.90;;;;;;5028440;28;20033;-81
2023/01/10 01:22:54;;;;;;;1.25;0.25;;;7.10;99.90;;;;;;5044204;28;20099;-82
2023/01/10 01:25:20;;;;;;;0.38;0.20;;;7.00;99.90;;;;;;5028377;28;20071;-81
2023/01/10 01:27:45;;;;;;;0.65;0.38;;;7.00;99.90;;;;;;5041431;23;20041;-83
2023/01/10 01:30:13;;;;;;;0.30;0.20;;;7.00;99.90;;;;;;5012254;28;20025;-84
2023/01/10 01:32:40;;;;;;;0.43;0.43;;;7.00;99.90;;;;;;5005629;28;20036;-84
2023/01/10 01:35:08;;;;;;;0.45;0.30;;;7.00;99.90;;;;;;5030272;28;20037;-85
2023/01/10 01:37:34;;;;;;;0.00;0.00;;;7.00;99.90;;;;;;5025452;28;20037;-85
2023/01/10 01:39:59;;;;;;;1.50;0.28;;;7.00;99.90;;;;;;5033269;28;20671;-85
2023/01/10 01:42:33;;;;;;;1.45;0.20;;;6.90;99.90;;;;;;5021695;28;20136;-85
2023/01/10 01:45:08;;;;;;;4.00;0.63;;;6.90;99.90;;;;;;5038496;28;20080;-85
2023/01/10 01:48:01;;;;;;;0.10;0.10;;;6.90;99.90;;;;;;5030981;28;20572;-85
2023/01/10 01:50:50;;;;;;;3.33;0.30;;;7.00;99.90;;;;;;5018561;28;20029;-85
2023/01/10 01:53:31;;;;;;;1.90;0.47;;;7.00;99.90;;;;;;5025949;28;20029;-85
2023/01/10 01:56:04;;;;;;;5.63;0.30;;;6.90;99.90;;;;;;5033199;28;20517;-85
2023/01/10 01:58:46;;;;;;;0.20;0.20;;;6.90;99.90;;;;;;5024590;28;20375;-85
2023/01/10 02:01:15;;;;;;;0.10;0.10;;;6.90;99.90;;;;;;5030421;28;20044;-85
2023/01/10 02:03:46;;;;;;;0.43;0.40;;;6.90;99.90;;;;;;5016574;28;20040;-84
2023/01/10 02:06:14;;;;;;;0.30;0.20;;;6.90;99.90;;;;;;5011516;28;20030;-84
2023/01/10 02:08:49;;;;;;;0.55;0.40;;;6.90;99.90;;;;;;5003355;28;20025;-84
2023/01/10 02:11:15;;;;;;;0.10;0.10;;;6.80;99.90;;;;;;5020245;28;20037;-84
2023/01/10 02:13:44;;;;;;;3.35;0.70;;;6.80;99.90;;;;;;5030852;28;20029;-84
2023/01/10 02:16:10;;;;;;;0.10;0.10;;;6.80;99.90;;;;;;5035672;28;20033;-85
2023/01/10 02:18:41;;;;;;;0.10;0.10;;;6.80;99.90;;;;;;5029060;28;20404;-84
2023/01/10 02:21:18;;;;;;;0.68;0.38;;;6.80;99.90;;;;;;5045865;28;20034;-85
2023/01/10 02:24:10;;;;;;;0.55;0.30;;;6.80;99.90;;;;;;5038007;28;20116;-85
2023/01/10 02:27:13;;;;;;;1.05;0.40;;;6.80;99.90;;;;;;5011345;28;20041;-85
2023/01/10 02:30:08;;;;;;;0.43;0.35;;;6.80;99.90;;;;;;5020689;28;20033;-85
2023/01/10 02:32:40;;;;;;;2.85;0.55;;;6.80;99.90;;;;;;5036292;28;20037;-85
2023/01/10 02:35:21;;;;;;;4.47;1.00;;;6.90;99.90;;;;;;5035110;28;20037;-84
2023/01/10 02:38:25;;;;;;;;;;;6.80;99.90;;;;;;5043956;28;20108;-85
2023/01/10 02:41:40;;;;;;;7.85;0.95;;;6.80;99.90;;;;;;5019613;28;19917;-84
2023/01/10 02:44:18;;;;;;;0.50;0.38;;;6.80;99.90;;;;;;5018476;28;20046;-85
2023/01/10 02:46:46;;;;;;;2.92;2.15;;;6.80;99.90;;;;;;5041685;28;20034;-85
2023/01/10 02:49:12;;;;;;;0.20;0.20;;;6.80;99.90;;;;;;5031040;28;20033;-84
2023/01/10 02:51:38;;;;;;;1.63;0.77;;;6.90;99.90;;;;;;5029136;28;20041;-84
2023/01/10 02:54:11;;;;;;;0.60;0.43;;;6.80;99.90;;;;;;5020976;28;20021;-85
2023/01/10 02:57:30;;;;;;;0.85;0.50;;;6.80;99.90;;;;;;5029299;28;20437;-84
2023/01/10 03:01:08;;;;;;;0.55;0.30;;;6.70;99.90;;;;;;5027873;28;20108;-84
2023/01/10 03:04:08;;;;;;;0.10;0.10;;;6.80;99.90;;;;;;4978560;28;20169;-85
2023/01/10 03:06:53;;;;;;;0.88;0.65;;;6.70;99.90;;;;;;4997418;28;20026;-85
2023/01/10 03:09:42;;;;;;;0.65;0.35;;;6.70;99.90;;;;;;5016809;28;20067;-85
2023/01/10 03:12:22;;;;;;;7.13;0.55;;;6.70;99.90;;;;;;5032036;28;20029;-84
2023/01/10 03:14:49;;;;;;;1.10;0.45;;;6.70;99.90;;;;;;5042109;28;20029;-85
2023/01/10 03:17:18;;;;;;;1.95;0.55;;;6.60;99.90;;;;;;5031073;28;20033;-85
2023/01/10 03:19:55;;;;;;;1.98;0.75;;;6.60;99.90;;;;;;5054885;28;20040;-85
2023/01/10 03:22:24;;;;;;;2.40;0.45;;;6.60;99.90;;;;;;5054948;28;20056;-85
2023/01/10 03:24:54;;;;;;;1.85;0.95;;;6.60;99.90;;;;;;5048408;28;20044;-84
2023/01/10 03:28:16;;;;;;;0.30;0.28;;;6.60;99.90;;;;;;5027684;28;20152;-85
2023/01/10 03:30:58;;;;;;;;;;;6.60;99.90;;;;;;5003156;28;20037;-85
2023/01/10 03:33:29;;;;;;;0.90;0.43;;;6.60;99.90;;;;;;5012980;28;20365;-85
2023/01/10 03:36:25;;;;;;;7.47;0.98;;;6.60;99.90;;;;;;5043578;28;20033;-85
2023/01/10 03:39:00;;;;;;;4.57;0.60;;;6.60;99.90;;;;;;5043628;28;20042;-84
2023/01/10 03:41:54;;;;;;;4.47;1.08;;;6.60;99.90;;;;;;5035317;28;20033;-84
2023/01/10 03:45:04;;;;;;;0.73;0.43;;;6.60;99.90;;;;;;5020202;28;20041;-85
2023/01/10 03:47:40;;;;;;;3.00;1.05;;;6.60;99.90;;;;;;5029174;28;20041;-84
2023/01/10 03:50:19;;;;;;;1.20;0.73;;;6.60;99.90;;;;;;5040986;28;20477;-84
2023/01/10 03:52:45;;;;;;;0.20;0.20;;;6.70;99.90;;;;;;5035932;28;20660;-84
2023/01/10 03:55:18;;;;;;;1.55;0.55;;;6.70;99.90;;;;;;5024908;28;20109;-84
2023/01/10 03:57:44;;;;;;;5.05;0.60;;;6.60;99.90;;;;;;5026378;28;20033;-83
2023/01/10 04:00:12;;;;;;;2.20;0.90;;;6.60;99.90;;;;;;5032049;28;20039;-84
2023/01/10 04:02:38;;;;;;;0.90;0.40;;;6.50;99.90;;;;;;5033396;28;20080;-84
2023/01/10 04:05:05;;;;;;;0.80;0.47;;;6.50;99.90;;;;;;5024330;28;20017;-84
2023/01/10 04:07:31;;;;;;;2.20;0.60;;;6.50;99.90;;;;;;5033538;28;20026;-85
2023/01/10 04:09:57;;;;;;;0.50;0.28;;;6.50;99.90;;;;;;5032275;28;20159;-85
2023/01/10 04:12:24;;;;;;;5.10;0.70;;;6.50;99.90;;;;;;5018716;28;20048;-86
2023/01/10 04:14:49;;;;;;;3.80;0.73;;;6.50;99.90;;;;;;5035100;28;20026;-82
2023/01/10 04:17:17;;;;;;;14.40;0.57;;;6.50;99.90;;;;;;5026173;28;20120;-85
2023/01/10 04:19:43;;;;;;;3.65;0.63;;;6.50;99.90;;;;;;5024630;28;20401;-85
2023/01/10 04:22:10;;;;;;;3.20;0.55;;;6.50;99.90;;;;;;5014390;28;20037;-85
2023/01/10 04:24:36;;;;;;;0.50;0.30;;;6.50;99.90;;;;;;5031367;28;20466;-85
2023/01/10 04:27:03;;;;;;;6.13;1.15;;;6.50;99.90;;;;;;5041712;28;20045;-85
2023/01/10 04:29:29;;;;;;;0.45;0.40;;;6.40;99.90;;;;;;5031992;28;20025;-85
2023/01/10 04:31:55;;;;;;;0.90;0.90;;;6.40;99.90;;;;;;5026545;28;20041;-85
2023/01/10 04:34:21;;;;;;;6.13;1.15;;;6.40;99.90;;;;;;5031828;28;20044;-85
2023/01/10 04:36:48;;;;;;;2.22;0.63;;;6.40;99.90;;;;;;5028781;28;20061;-85
2023/01/10 04:39:14;;;;;;;4.35;0.90;;;6.40;99.90;;;;;;5006444;28;20712;-85
2023/01/10 04:41:40;;;;;;;0.85;0.47;;;6.40;99.90;;;;;;5030811;28;20033;-85
2023/01/10 04:44:06;;;;;;;2.60;1.00;;;6.40;99.90;;;;;;5023213;28;20500;-85
2023/01/10 04:46:32;;;;;;;5.88;1.38;;;6.40;99.90;;;;;;5028151;28;20033;-84
2023/01/10 04:48:58;;;;;;;0.35;0.32;;;6.40;99.90;;;;;;5006673;28;20041;-84
2023/01/10 04:51:28;;;;;;;16.27;1.10;;;6.40;99.90;;;;;;5047223;28;20052;-85
2023/01/10 04:53:54;;;;;;;1.77;0.80;;;6.30;99.90;;;;;;5006947;28;20059;-85
2023/01/10 05:06:59;;;;;;;1.20;0.63;;;6.40;99.90;;;;;;4992933;28;20038;-85
2023/01/10 05:09:29;;;;;;;6.10;0.82;;;6.40;99.90;;;;;;4966673;28;20050;-84
2023/01/10 05:11:55;;;;;;;3.33;1.03;;;6.20;99.90;;;;;;4970139;28;20035;-85
2023/01/10 05:14:21;;;;;;;6.50;1.42;;;6.20;99.90;;;;;;4973585;28;20041;-84
2023/01/10 05:16:47;;;;;;;0.98;0.63;;;6.10;99.90;;;;;;4946581;28;20043;-83
2023/01/10 05:19:27;;;;;;;0.30;0.30;;;6.10;99.90;;;;;;4970729;28;20510;-84
2023/01/10 05:21:53;;;;;;;2.20;2.00;;;6.10;99.90;;;;;;4991596;28;20291;-78
2023/01/10 05:24:19;;;;;;;6.93;1.23;;;6.10;99.90;;;;;;4992033;28;20090;-74
2023/01/10 05:26:44;;;;;;;1.40;0.60;;;6.00;99.90;;;;;;4942595;28;20035;-74
2023/01/10 05:29:11;;;;;;;0.88;0.60;;;6.00;99.90;;;;;;4990529;28;20117;-74
2023/01/10 05:31:37;;;;;;;3.25;1.05;;;6.00;99.90;;;;;;4969732;28;20034;-75
2023/01/10 05:34:03;;;;;;;21.15;4.63;;;6.00;99.90;;;;;;4992669;28;20034;-76
2023/01/10 05:36:28;;;;;;;7.18;0.90;;;6.00;99.90;;;;;;4975396;28;20066;-76
2023/01/10 05:38:54;;;;;;;9.10;2.05;;;5.90;99.90;;;;;;4995397;28;20038;-76
2023/01/10 05:41:20;;;;;;;5.50;1.30;;;6.00;99.90;;;;;;4994017;28;21550;-75
2023/01/10 05:43:45;;;;;;;5.63;0.95;;;6.00;99.90;;;;;;4993771;28;20037;-73
2023/01/10 05:46:11;;;;;;;1.65;0.63;;;6.00;99.90;;;;;;4991575;28;20042;-74
2023/01/10 05:48:37;;;;;;;4.18;1.20;;;6.10;99.90;;;;;;4991166;28;20548;-73
2023/01/10 05:51:03;;;;;;;2.08;0.50;;;6.30;99.90;;;;;;4990501;28;20065;-72
2023/01/10 05:53:28;;;;;;;12.45;0.95;;;6.30;99.90;;;;;;4991024;28;20081;-72
2023/01/10 05:55:57;;;;;;;1.17;0.75;;;6.30;99.90;;;;;;4990959;28;20042;-73
2023/01/10 05:58:23;;;;;;;5.10;1.67;;;6.30;99.90;;;;;;4984687;28;20034;-73
2023/01/10 06:00:50;;;;;;;1.00;0.40;;;6.40;99.90;;;;;;4991082;28;20121;-74
2023/01/10 06:03:16;;;;;;;4.38;0.70;;;6.40;99.90;;;;;;4973464;28;20035;-74
2023/01/10 06:05:41;;;;;;;2.08;0.80;;;6.50;99.90;;;;;;4991416;28;20056;-74
2023/01/10 06:08:08;;;;;;;1.05;0.50;;;6.50;99.90;;;;;;4990346;28;20072;-74
2023/01/10 06:10:34;;;;;;;8.02;1.15;;;6.50;99.90;;;;;;4974001;28;20380;-73
2023/01/10 06:13:00;;;;;;;4.07;1.15;;;6.50;99.90;;;;;;4984497;28;20055;-75
2023/01/10 06:15:26;;;;;;;6.32;1.63;;;6.60;99.90;;;;;;4990868;28;20046;-73
2023/01/10 06:17:53;;;;;;;5.20;1.55;;;6.50;99.90;;;;;;4984110;28;20053;-73
2023/01/10 06:20:19;;;;;;;3.97;0.95;;;6.60;99.90;;;;;;4991112;28;20027;-73
2023/01/10 06:22:44;;;;;;;9.90;1.50;;;6.60;99.90;;;;;;4972849;28;20034;-73
2023/01/10 06:25:12;;;;;;;9.60;2.00;;;6.60;99.90;;;;;;4987189;28;20022;-74
2023/01/10 06:27:42;;;;;;;1.98;1.23;;;6.60;99.90;;;;;;4988454;28;20030;-74
2023/01/10 06:30:11;;;;;;;8.77;0.67;;;6.60;99.90;;;;;;4981126;28;20702;-74
2023/01/10 06:32:38;;;;;;;15.63;1.42;;;6.60;99.90;;;;;;4956961;28;20301;-69
2023/01/10 06:35:04;;;;;;;4.43;1.15;;;6.60;99.90;;;;;;4981541;28;20498;-75
2023/01/10 06:37:30;;;;;;;1.17;0.65;;;6.60;99.90;;;;;;4984122;28;20399;-73
2023/01/10 06:39:56;;;;;;;2.65;1.30;;;6.60;99.90;;;;;;4973451;28;20026;-78
2023/01/10 06:42:22;;;;;;;6.07;0.95;;;6.60;99.90;;;;;;4983563;28;20049;-75
2023/01/10 06:44:48;;;;;;;2.92;1.65;;;6.60;99.90;;;;;;4993737;28;20057;-75
2023/01/10 06:47:13;;;;;;;0.55;0.55;;;6.60;99.90;;;;;;4994254;28;20072;-73
2023/01/10 06:49:39;;;;;;;1.58;1.02;;;6.50;99.90;;;;;;4980257;28;20106;-76
2023/01/10 06:52:05;;;;;;;3.58;0.85;;;6.50;99.90;;;;;;4979718;28;20509;-74
2023/01/10 06:54:30;;;;;;;3.67;1.40;;;6.50;99.90;;;;;;4980037;28;20030;-76
2023/01/10 06:56:56;;;;;;;8.82;0.80;;;6.50;99.90;;;;;;4990237;28;20038;-73
2023/01/10 06:59:22;;;;;;;3.95;1.33;;;6.40;99.90;;;;;;4996993;28;20019;-76
2023/01/10 07:01:47;;;;;;;10.00;0.98;;;6.40;99.90;;;;;;4995917;28;20032;-76
2023/01/10 07:04:13;;;;;;;1.67;0.47;;;6.50;99.90;;;;;;4997582;28;20030;-74
2023/01/10 07:06:40;;;;;;;3.63;1.02;;;6.50;99.90;;;;;;4991763;28;20034;-74
2023/01/10 07:09:07;;;;;;;7.18;0.98;;;6.50;99.90;;;;;;4995898;28;20088;-74
2023/01/10 07:11:34;;;;;;;2.25;0.95;;;6.50;99.90;;;;;;4992701;28;20114;-75
2023/01/10 07:14:00;;;;;;;5.22;1.55;;;6.50;99.90;;;;;;4979877;28;20033;-75
2023/01/10 07:16:27;;;;;;;8.18;1.58;;;6.60;99.90;;;;;;4993304;28;20049;-76
2023/01/10 07:18:52;;;;;;;10.40;1.15;;;6.70;99.90;;;;;;4993411;28;20022;-76
2023/01/10 07:21:18;;;;;;;6.15;1.10;;;6.60;99.90;;;;;;4994546;28;20035;-76
2023/01/10 07:23:48;;;;;;;1.95;0.95;;;6.60;99.90;;;;;;4993050;28;20525;-76
2023/01/10 07:26:17;;;;;;;3.75;0.95;;;6.50;99.90;;;;;;5002476;28;20046;-80
2023/01/10 07:28:49;;;;;;;1.48;1.05;;;6.40;99.90;;;;;;5031145;23;20052;-76
2023/01/10 07:31:16;;;;;;;3.83;1.38;;;6.30;99.90;;;;;;5035981;28;20511;-78
2023/01/10 07:33:42;;;;;;;2.25;1.23;;;6.40;99.90;;;;;;5036200;28;20041;-77
2023/01/10 07:36:08;;;;;;;2.80;0.70;;;6.30;99.90;;;;;;5026774;28;20030;-79
2023/01/10 07:38:34;;;;;;;6.38;0.80;;;6.20;99.90;;;;;;5020390;28;20158;-78
2023/01/10 07:41:04;;;;;;;6.65;1.50;;;6.20;99.90;;;;;;5023348;28;20159;-78
2023/01/10 07:43:30;;;;;;;7.40;1.17;;;6.20;99.90;;;;;;5000555;28;20061;-78
2023/01/10 07:46:00;;;;;;;1.42;0.82;;;6.10;99.90;;;;;;5007388;28;20065;-78
2023/01/10 07:48:26;;;;;;;11.63;2.15;;;6.20;99.90;;;;;;5022605;28;20448;-77
2023/01/10 07:50:56;;;;;;;5.75;1.33;;;6.20;99.90;;;;;;5027173;28;20045;-76
2023/01/10 07:53:23;;;;;;;4.88;1.42;;;6.30;99.90;;;;;;5013930;28;20041;-77
2023/01/10 07:55:49;;;;;;;9.95;1.05;;;6.20;99.90;;;;;;5019628;28;20117;-78
2023/01/10 07:58:15;;;;;;;3.83;1.23;;;6.10;99.90;;;;;;5013448;28;20041;-74
2023/01/10 08:00:40;;;;;;;2.13;0.93;;;6.20;99.90;;;;;;5013095;28;20026;-74
2023/01/10 08:03:06;;;;;;;2.80;1.42;;;6.20;99.90;;;;;;5012908;28;20061;-80
2023/01/10 08:05:32;;;;;;;4.50;1.17;;;6.20;99.90;;;;;;5028344;28;20500;-79
2023/01/10 08:08:07;;;;;;;2.03;0.93;;;6.20;99.90;;;;;;5011929;28;20105;-78
2023/01/10 08:10:34;;;;;;;5.18;1.20;;;6.30;99.90;;;;;;5012690;28;20440;-77
2023/01/10 08:13:00;;;;;;;5.05;0.93;;;6.30;99.90;;;;;;5017345;28;20038;-72
2023/01/10 08:15:26;;;;;;;3.55;1.30;;;6.30;99.90;;;;;;5028114;28;20026;-78
2023/01/10 08:17:52;;;;;;;9.75;1.05;;;6.40;99.90;;;;;;5018405;28;20036;-76
2023/01/10 08:20:17;;;;;;;7.82;2.90;;;6.30;99.90;;;;;;5012657;28;20121;-77
2023/01/10 08:22:43;;;;;;;6.68;1.15;;;6.30;99.90;;;;;;5011926;28;20136;-73
2023/01/10 08:25:10;;;;;;;4.38;1.02;;;6.30;99.90;;;;;;5012543;28;20113;-71
2023/01/10 08:27:36;;;;;;;0.90;0.65;;;6.30;99.90;;;;;;5011337;28;20057;-70
2023/01/10 08:30:04;;;;;;;13.40;1.90;;;6.30;99.90;;;;;;5002245;28;20036;-72
2023/01/10 08:32:29;;;;;;;1.77;0.63;;;6.40;99.90;;;;;;5011536;28;20034;-72
2023/01/10 08:34:55;;;;;;;6.53;0.82;;;6.30;99.90;;;;;;5001360;28;20509;-70
2023/01/10 08:37:21;;;;;;;7.93;1.83;;;6.20;99.90;;;;;;5011195;28;20033;-73
2023/01/10 08:39:47;;;;;;;6.53;2.22;;;6.20;99.90;;;;;;5013144;28;20026;-68
2023/01/10 08:42:12;;;;;;;5.28;1.50;;;6.20;99.90;;;;;;5009970;28;20056;-72
2023/01/10 08:44:38;;;;;;;11.32;1.15;;;6.20;99.90;;;;;;5012081;28;20114;-72
2023/01/10 08:47:04;;;;;;;1.35;0.93;;;6.20;99.90;;;;;;5010807;28;20034;-71
2023/01/10 08:49:29;;;;;;;3.28;1.40;;;6.20;99.90;;;;;;5018171;28;20029;-71
2023/01/10 08:51:55;;;;;;;6.68;1.95;;;6.20;99.90;;;;;;5011092;28;20068;-73
2023/01/10 08:54:21;;;;;;;6.80;1.33;;;6.20;99.90;;;;;;5011140;28;20033;-69
2023/01/10 08:56:46;;;;;;;12.55;2.08;;;6.20;99.90;;;;;;5012010;28;20033;-68
2023/01/10 08:59:12;;;;;;;8.98;1.75;;;6.20;99.90;;;;;;5010888;28;20051;-69
2023/01/10 09:01:38;;;;;;;15.40;1.20;;;6.20;99.90;;;;;;5009063;28;20037;-69
2023/01/10 09:04:04;;;;;;;29.23;1.77;;;6.30;99.90;;;;;;5001679;28;20037;-68
2023/01/10 09:06:30;;;;;;;9.85;1.50;;;6.20;99.90;;;;;;4998694;28;20398;-70
2023/01/10 09:08:55;;;;;;;8.27;0.95;;;6.20;99.90;;;;;;4985001;28;20036;-70
2023/01/10 09:11:21;;;;;;;3.22;1.30;;;6.30;99.90;;;;;;5004345;28;20043;-69
2023/01/10 09:13:50;;;;;;;9.07;1.85;;;6.40;99.90;;;;;;5007610;28;20183;-69
2023/01/10 09:16:17;;;;;;;6.75;0.75;;;6.50;99.90;;;;;;4994138;28;20033;-68
2023/01/10 09:18:42;;;;;;;4.85;1.13;;;6.60;99.90;;;;;;5009584;28;20042;-68
2023/01/10 09:21:08;;;;;;;10.93;1.77;;;6.70;99.90;;;;;;5010705;28;20117;-68
2023/01/10 09:23:34;;;;;;;18.13;0.90;;;6.70;99.90;;;;;;5008544;28;20029;-70
2023/01/10 09:26:00;;;;;;;2.50;0.93;;;6.60;99.90;;;;;;5010247;28;20440;-69
2023/01/10 09:28:26;;;;;;;9.25;2.42;;;6.60;99.90;;;;;;5010837;28;20034;-69
2023/01/10 09:30:52;;;;;;;15.38;1.55;;;6.60;99.90;;;;;;5010406;28;20049;-68
2023/01/10 09:33:18;;;;;;;2.75;0.82;;;6.60;99.90;;;;;;5011093;28;20033;-69
2023/01/10 09:35:44;;;;;;;4.43;1.48;;;6.60;99.90;;;;;;5020402;28;20069;-72
2023/01/10 09:38:15;;;;;;;3.65;1.05;;;6.60;99.90;;;;;;5010872;28;20034;-69
2023/01/10 09:41:18;;;;;;;5.18;1.50;;;6.60;99.90;;;;;;5018038;28;20141;-71
2023/01/10 09:44:15;;;;;;;3.85;1.42;;;6.60;99.90;;;;;;5011392;28;20038;-70
2023/01/10 09:46:55;;;;;;;10.32;1.05;;;6.70;99.90;;;;;;4994626;28;20080;-69
2023/01/10 09:49:24;;;;;;;1.95;1.23;;;6.60;99.90;;;;;;5011724;28;20501;-69
2023/01/10 09:51:53;;;;;;;15.60;1.23;;;6.60;99.90;;;;;;4997779;28;20037;-68
2023/01/10 09:54:30;;;;;;;2.38;1.20;;;6.60;99.90;;;;;;4999011;28;20026;-69
2023/01/10 09:56:59;;;;;;;4.47;1.77;;;6.70;99.90;;;;;;5019147;28;20037;-69
2023/01/10 09:59:36;;;;;;;2.80;1.02;;;6.70;99.90;;;;;;5009905;28;20037;-69
2023/01/10 10:02:40;;;;;;;3.05;0.65;;;6.70;99.90;;;;;;5017461;28;20030;-69
2023/01/10 10:05:26;;;;;;;2.72;1.40;;;6.70;99.90;;;;;;5011468;28;20068;-67
2023/01/10 10:07:56;;;;;;;10.90;1.50;;;6.70;99.90;;;;;;5002569;28;20117;-69
2023/01/10 10:10:42;;;;;;;1.05;0.77;;;6.80;99.90;;;;;;5017315;28;20049;-68
2023/01/10 10:13:24;;;;;;;1.52;0.60;;;6.70;99.90;;;;;;5023720;28;20092;-69
2023/01/10 10:16:51;;;;;;;8.45;0.98;;;6.70;99.90;;;;;;5010717;28;20083;-69
2023/01/10 10:20:04;;;;;;;2.25;0.98;;;6.70;99.90;;;;;;4987473;28;20507;-69
2023/01/10 10:23:45;;;;;;;14.90;2.05;;;6.80;99.90;;;;;;5003362;28;20026;-69
2023/01/10 10:26:26;;;;;;;10.27;1.73;;;6.70;99.90;;;;;;4927638;29;20051;-68
2023/01/10 10:29:24;;;;;;;5.20;1.75;;;6.80;99.90;;;;;;4994255;28;20083;-69
2023/01/10 10:31:50;;;;;;;15.48;1.27;;;6.80;99.90;;;;;;5010979;28;20042;-69
2023/01/10 10:34:27;;;;;;;5.60;1.50;;;6.80;99.90;;;;;;5009399;28;20049;-69
2023/01/10 10:37:04;;;;;;;2.30;1.13;;;6.90;99.90;;;;;;5009972;28;20026;-69
2023/01/10 10:39:44;;;;;;;6.18;1.13;;;6.90;99.90;;;;;;5017854;28;20046;-69
2023/01/10 10:42:16;;;;;;;10.32;2.35;;;6.90;99.90;;;;;;5016230;28;20026;-68
2023/01/10 10:45:10;;;;;;;8.40;1.33;;;7.00;99.90;;;;;;5008853;28;20401;-69
2023/01/10 10:47:39;;;;;;;14.40;1.80;;;6.90;99.90;;;;;;4964468;28;20533;-69
2023/01/10 10:50:14;;;;;;;5.57;1.70;;;7.00;99.90;;;;;;5014320;28;20375;-68
2023/01/10 10:52:41;;;;;;;1.80;1.02;;;7.00;99.90;;;;;;4989225;28;20391;-69
2023/01/10 10:55:17;;;;;;;9.25;1.33;;;7.20;99.90;;;;;;5008492;28;20126;-68
2023/01/10 10:57:45;;;;;;;10.05;2.80;;;7.30;99.90;;;;;;5010053;28;20040;-70
2023/01/10 11:00:21;;;;;;;0.47;0.47;;;7.20;99.90;;;;;;5020476;28;20053;-69
2023/01/10 11:03:11;;;;;;;2.72;0.93;;;7.20;99.90;;;;;;5016929;28;20042;-69
2023/01/10 11:05:41;;;;;;;6.15;1.90;;;7.20;99.90;;;;;;5000357;28;20044;-69
2023/01/10 11:08:21;;;;;;;5.35;1.60;;;7.30;99.90;;;;;;5016417;28;20639;-71
2023/01/10 11:10:53;;;;;;;11.10;3.03;;;7.20;99.90;;;;;;5009608;28;20394;-72
2023/01/10 11:13:33;;;;;;;9.93;1.85;;;7.10;99.90;;;;;;5016549;28;20029;-69
2023/01/10 11:16:03;;;;;;;6.90;1.20;;;7.20;99.90;;;;;;5008996;28;20810;-71
2023/01/10 11:18:30;;;;;;;6.47;1.50;;;7.30;99.90;;;;;;5009312;28;20048;-71
2023/01/10 11:21:05;;;;;;;10.15;1.38;;;7.40;99.90;;;;;;5008875;28;20041;-69
2023/01/10 11:23:39;;;;;;;18.10;1.17;;;7.30;99.90;;;;;;5018051;28;20410;-69
2023/01/10 11:26:26;;;;;;;0.95;0.73;;;7.20;99.90;;;;;;5008548;28;20037;-69
2023/01/10 11:29:22;;;;;;;5.78;0.85;;;7.30;99.90;;;;;;5009653;28;20034;-69
2023/01/10 11:31:49;;;;;;;16.98;1.33;;;7.30;99.90;;;;;;5020198;28;20057;-70
2023/01/10 11:34:32;;;;;;;13.02;1.10;;;7.30;99.90;;;;;;5028501;28;20030;-70
2023/01/10 11:37:15;;;;;;;4.78;1.88;;;7.40;99.90;;;;;;5017589;28;20493;-68
2023/01/10 11:39:41;;;;;;;12.13;1.95;;;7.70;99.90;;;;;;5013074;28;20091;-69
2023/01/10 11:42:40;;;;;;;9.30;1.58;;;7.70;99.90;;;;;;5019886;28;20034;-68
2023/01/10 11:45:34;;;;;;;13.02;1.38;;;7.60;99.90;;;;;;4985666;28;20465;-70
2023/01/10 11:48:43;;;;;;;2.17;0.85;;;7.70;99.90;;;;;;4997255;28;20042;-80
2023/01/10 11:51:23;;;;;;;7.82;1.55;;;7.60;99.90;;;;;;4993615;28;20055;-80
2023/01/10 11:54:03;;;;;;;6.45;1.17;;;7.70;99.90;;;;;;5018699;28;20488;-80
2023/01/10 11:56:33;;;;;;;5.93;1.20;;;7.80;99.90;;;;;;4997129;28;20044;-80
2023/01/10 11:59:11;;;;;;;4.80;1.02;;;7.80;99.90;;;;;;5012283;28;20401;-76
2023/01/10 12:02:06;;;;;;;5.05;0.77;;;7.80;99.90;;;;;;5019634;28;20132;-81
2023/01/10 12:04:39;;;;;;;8.07;1.10;;;7.70;99.90;;;;;;5012612;28;20163;-80
2023/01/10 12:07:10;;;;;;;12.27;1.50;;;7.60;99.90;;;;;;5012288;28;20564;-78
2023/01/10 12:09:58;;;;;;;1.98;1.15;;;7.60;99.90;;;;;;5024241;28;20042;-79
2023/01/10 12:12:34;;;;;;;1.40;0.80;;;7.50;99.90;;;;;;5011574;28;20502;-78
2023/01/10 12:15:28;;;;;;;2.80;1.10;;;7.40;99.90;;;;;;5015321;28;20034;-80
2023/01/10 12:17:59;;;;;;;6.32;2.88;;;7.40;99.90;;;;;;5019613;28;20075;-79
2023/01/10 12:20:37;;;;;;;3.30;0.73;;;7.50;99.90;;;;;;5022287;28;20493;-79
2023/01/10 12:23:10;;;;;;;2.70;0.77;;;7.60;99.90;;;;;;5024646;28;20505;-78
2023/01/10 12:25:44;;;;;;;5.57;0.85;;;7.50;99.90;;;;;;5018575;28;20422;-79
2023/01/10 12:28:23;;;;;;;1.00;0.65;;;7.40;99.90;;;;;;5010251;28;20396;-79
2023/01/10 12:30:50;;;;;;;9.20;1.00;;;7.40;99.90;;;;;;5018882;28;20041;-79
2023/01/10 12:33:31;;;;;;;8.15;1.30;;;7.60;99.90;;;;;;4978164;28;20572;-78
2023/01/10 12:36:08;;;;;;;3.45;2.13;;;7.80;99.90;;;;;;5018774;28;20042;-80
2023/01/10 12:39:08;;;;;;;4.13;1.30;;;8.10;99.90;;;;;;5014746;28;20034;-79
2023/01/10 12:44:51;;;;;;;2.10;1.02;;;8.20;99.90;;;;;;5012380;28;20127;-79
2023/01/10 12:47:45;;;;;;;9.23;1.70;;;8.20;99.90;;;;;;5008069;28;20485;-79
2023/01/10 12:50:21;;;;;;;6.78;2.13;;;8.40;99.90;;;;;;5011371;28;20050;-80
2023/01/10 12:52:56;;;;;;;4.70;1.38;;;8.30;99.90;;;;;;5023170;28;20041;-78
2023/01/10 12:55:28;;;;;;;6.57;0.50;;;8.40;99.90;;;;;;5011091;28;20030;-79
2023/01/10 12:58:01;;;;;;;8.23;1.75;;;8.40;99.90;;;;;;5023694;28;20109;-79
2023/01/10 13:00:41;;;;;;;6.18;1.15;;;8.00;99.90;;;;;;5002684;28;20026;-80
2023/01/10 13:03:16;;;;;;;9.60;1.83;;;7.90;99.90;;;;;;5016021;28;20041;-80
2023/01/10 13:05:47;;;;;;;2.60;0.43;;;7.90;99.90;;;;;;5011775;28;20053;-80
2023/01/10 13:08:17;;;;;;;8.73;2.85;;;7.90;99.90;;;;;;5010812;28;20020;-79
2023/01/10 13:10:51;;;;;;;9.73;1.23;;;8.00;99.90;;;;;;5010137;28;20050;-81
2023/01/10 13:13:42;;;;;;;10.80;1.13;;;8.10;99.90;;;;;;5010671;28;20328;-79
2023/01/10 13:16:38;;;;;;;2.63;0.93;;;7.90;99.90;;;;;;5007851;28;20526;-80
2023/01/10 13:19:10;;;;;;;14.90;1.38;;;7.90;99.90;;;;;;5015909;28;20063;-80
2023/01/10 13:21:38;;;;;;;6.20;1.42;;;7.80;99.90;;;;;;5010411;28;20564;-80
2023/01/10 13:24:27;;;;;;;5.68;0.80;;;8.00;99.90;;;;;;5018250;28;20489;-80
2023/01/10 13:27:00;;;;;;;4.88;0.77;;;7.90;99.90;;;;;;4995057;28;20038;-79
2023/01/10 13:29:41;;;;;;;4.63;1.10;;;7.80;99.90;;;;;;5039810;23;20108;-74
2023/01/10 13:32:29;;;;;;;4.35;0.93;;;8.00;99.90;;;;;;5011828;28;20029;-74
2023/01/10 13:35:18;;;;;;;9.45;1.33;;;8.00;99.90;;;;;;5010643;28;20063;-74
2023/01/10 13:37:51;;;;;;;4.10;0.88;;;8.10;99.90;;;;;;5024139;28;20061;-74
2023/01/10 13:40:26;;;;;;;11.55;1.05;;;8.40;99.90;;;;;;4977908;28;20036;-74
2023/01/10 13:43:33;;;;;;;5.03;0.95;;;8.40;99.90;;;;;;5010092;28;20025;-74
2023/01/10 13:46:14;;;;;;;3.33;0.70;;;8.20;99.90;;;;;;4941576;28;20133;-74